sensor_id;sensor_type;location;lat;lon;timestamp;pressure;altitude;pressure_sealevel;temperature;humidity
27334;BME280;14817;57.104;-2.094;2023-08-06T00:00:21;98764.47;;;10.71;100.00
27334;BME280;14817;57.104;-2.094;2023-08-06T00:02:48;98771.41;;;10.66;100.00
27334;BME280;14817;57.104;-2.094;2023-08-06T00:05:15;98773.41;;;10.57;100.00
27334;BME280;14817;57.104;-2.094;2023-08-06T00:07:47;98772.63;;;10.63;100.00
27334;BME280;14817;57.104;-2.094;2023-08-06T00:10:14;98779.03;;;10.69;100.00
27334;BME280;14817;57.104;-2.094;2023-08-06T00:12:41;98774.91;;;10.66;100.00
27334;BME280;14817;57.104;-2.094;2023-08-06T00:15:08;98773.47;;;10.63;100.00
27334;BME280;14817;57.104;-2.094;2023-08-06T00:17:34;98774.41;;;10.56;100.00
27334;BME280;14817;57.104;-2.094;2023-08-06T00:20:02;98783.69;;;10.53;100.00
27334;BME280;14817;57.104;-2.094;2023-08-06T00:22:33;98788.22;;;10.53;100.00
27334;BME280;14817;57.104;-2.094;2023-08-06T00:25:00;98774.41;;;10.56;100.00
27334;BME280;14817;57.104;-2.094;2023-08-06T00:27:27;98778.59;;;10.58;100.00
27334;BME280;14817;57.104;-2.094;2023-08-06T00:29:53;98774.69;;;10.61;100.00
27334;BME280;14817;57.104;-2.094;2023-08-06T00:32:21;98784.50;;;10.54;100.00
27334;BME280;14817;57.104;-2.094;2023-08-06T00:34:48;98790.66;;;10.48;100.00
27334;BME280;14817;57.104;-2.094;2023-08-06T00:37:18;98795.59;;;10.51;100.00
27334;BME280;14817;57.104;-2.094;2023-08-06T00:39:45;98800.84;;;10.37;100.00
27334;BME280;14817;57.104;-2.094;2023-08-06T00:42:12;98797.97;;;10.39;100.00
27334;BME280;14817;57.104;-2.094;2023-08-06T00:44:39;98800.59;;;10.32;100.00
27334;BME280;14817;57.104;-2.094;2023-08-06T00:47:07;98803.00;;;10.27;100.00
27334;BME280;14817;57.104;-2.094;2023-08-06T00:49:35;98799.78;;;10.32;100.00
27334;BME280;14817;57.104;-2.094;2023-08-06T00:52:02;98802.44;;;10.32;100.00
27334;BME280;14817;57.104;-2.094;2023-08-06T00:54:30;98803.09;;;10.34;100.00
27334;BME280;14817;57.104;-2.094;2023-08-06T00:56:57;98807.22;;;10.36;100.00
27334;BME280;14817;57.104;-2.094;2023-08-06T00:59:24;98809.84;;;10.30;100.00
27334;BME280;14817;57.104;-2.094;2023-08-06T01:01:51;98816.31;;;10.20;100.00
27334;BME280;14817;57.104;-2.094;2023-08-06T01:04:19;98820.69;;;10.28;100.00
27334;BME280;14817;57.104;-2.094;2023-08-06T01:06:51;98813.38;;;10.37;100.00
27334;BME280;14817;57.104;-2.094;2023-08-06T01:09:33;98816.91;;;10.37;100.00
27334;BME280;14817;57.104;-2.094;2023-08-06T01:17:20;98831.41;;;10.28;100.00
27334;BME280;14817;57.104;-2.094;2023-08-06T01:19:46;98838.03;;;10.11;100.00
27334;BME280;14817;57.104;-2.094;2023-08-06T01:22:13;98840.00;;;10.02;100.00
27334;BME280;14817;57.104;-2.094;2023-08-06T01:24:40;98840.47;;;10.06;100.00
27334;BME280;14817;57.104;-2.094;2023-08-06T01:27:21;98840.81;;;10.02;100.00
27334;BME280;14817;57.104;-2.094;2023-08-06T01:30:03;98842.31;;;10.05;100.00
27334;BME280;14817;57.104;-2.094;2023-08-06T01:32:34;98849.44;;;9.98;100.00
27334;BME280;14817;57.104;-2.094;2023-08-06T01:35:02;98846.56;;;9.99;100.00
27334;BME280;14817;57.104;-2.094;2023-08-06T01:37:30;98849.69;;;10.03;100.00
27334;BME280;14817;57.104;-2.094;2023-08-06T01:39:57;98857.66;;;9.96;100.00
27334;BME280;14817;57.104;-2.094;2023-08-06T01:42:24;98854.28;;;10.09;100.00
27334;BME280;14817;57.104;-2.094;2023-08-06T01:44:51;98852.03;;;10.13;100.00
27334;BME280;14817;57.104;-2.094;2023-08-06T01:47:18;98856.19;;;10.15;100.00
27334;BME280;14817;57.104;-2.094;2023-08-06T01:49:44;98862.38;;;10.16;100.00
27334;BME280;14817;57.104;-2.094;2023-08-06T01:52:11;98860.88;;;10.13;100.00
27334;BME280;14817;57.104;-2.094;2023-08-06T01:54:38;98854.84;;;10.05;100.00
27334;BME280;14817;57.104;-2.094;2023-08-06T01:57:05;98858.16;;;10.07;100.00
27334;BME280;14817;57.104;-2.094;2023-08-06T01:59:31;98856.13;;;10.09;100.00
27334;BME280;14817;57.104;-2.094;2023-08-06T02:01:58;98857.09;;;10.01;100.00
27334;BME280;14817;57.104;-2.094;2023-08-06T02:04:25;98865.03;;;9.94;100.00
27334;BME280;14817;57.104;-2.094;2023-08-06T02:06:51;98864.25;;;10.00;100.00
27334;BME280;14817;57.104;-2.094;2023-08-06T02:09:18;98858.28;;;9.98;100.00
27334;BME280;14817;57.104;-2.094;2023-08-06T02:11:45;98866.22;;;9.92;100.00
27334;BME280;14817;57.104;-2.094;2023-08-06T02:14:11;98866.69;;;9.95;100.00
27334;BME280;14817;57.104;-2.094;2023-08-06T02:16:38;98865.59;;;9.90;100.00
27334;BME280;14817;57.104;-2.094;2023-08-06T02:19:05;98867.06;;;9.92;100.00
27334;BME280;14817;57.104;-2.094;2023-08-06T02:21:32;98867.31;;;9.97;100.00
27334;BME280;14817;57.104;-2.094;2023-08-06T02:23:58;98863.31;;;9.87;100.00
27334;BME280;14817;57.104;-2.094;2023-08-06T02:26:25;98870.38;;;9.94;100.00
27334;BME280;14817;57.104;-2.094;2023-08-06T02:28:54;98865.69;;;9.96;100.00
27334;BME280;14817;57.104;-2.094;2023-08-06T02:31:21;98860.94;;;9.98;100.00
27334;BME280;14817;57.104;-2.094;2023-08-06T02:33:48;98865.47;;;9.98;100.00
27334;BME280;14817;57.104;-2.094;2023-08-06T02:36:15;98857.19;;;9.93;100.00
27334;BME280;14817;57.104;-2.094;2023-08-06T02:38:41;98859.13;;;9.99;100.00
27334;BME280;14817;57.104;-2.094;2023-08-06T02:41:08;98863.63;;;9.98;100.00
27334;BME280;14817;57.104;-2.094;2023-08-06T02:43:35;98867.16;;;9.99;100.00
27334;BME280;14817;57.104;-2.094;2023-08-06T02:46:01;98851.09;;;9.99;100.00
27334;BME280;14817;57.104;-2.094;2023-08-06T02:48:28;98861.78;;;9.99;100.00
27334;BME280;14817;57.104;-2.094;2023-08-06T02:50:59;98863.25;;;10.01;100.00
27334;BME280;14817;57.104;-2.094;2023-08-06T02:53:27;98856.44;;;9.99;100.00
27334;BME280;14817;57.104;-2.094;2023-08-06T02:55:55;98856.63;;;9.97;100.00
27334;BME280;14817;57.104;-2.094;2023-08-06T02:58:30;98856.28;;;9.86;100.00
27334;BME280;14817;57.104;-2.094;2023-08-06T03:01:06;98855.38;;;9.78;100.00
27334;BME280;14817;57.104;-2.094;2023-08-06T03:03:46;98853.81;;;9.84;100.00
27334;BME280;14817;57.104;-2.094;2023-08-06T03:06:20;98864.69;;;9.82;100.00
27334;BME280;14817;57.104;-2.094;2023-08-06T03:08:50;98864.69;;;9.82;100.00
27334;BME280;14817;57.104;-2.094;2023-08-06T03:11:17;98848.78;;;9.59;100.00
27334;BME280;14817;57.104;-2.094;2023-08-06T03:13:44;98852.66;;;9.72;100.00
27334;BME280;14817;57.104;-2.094;2023-08-06T03:16:11;98843.34;;;9.68;100.00
27334;BME280;14817;57.104;-2.094;2023-08-06T03:18:38;98843.34;;;9.68;100.00
27334;BME280;14817;57.104;-2.094;2023-08-06T03:21:07;98845.69;;;9.56;100.00
27334;BME280;14817;57.104;-2.094;2023-08-06T03:23:34;98852.94;;;9.47;100.00
27334;BME280;14817;57.104;-2.094;2023-08-06T03:26:02;98852.50;;;9.58;100.00
27334;BME280;14817;57.104;-2.094;2023-08-06T03:28:31;98866.97;;;9.49;100.00
27334;BME280;14817;57.104;-2.094;2023-08-06T03:31:01;98864.19;;;9.57;100.00
27334;BME280;14817;57.104;-2.094;2023-08-06T03:33:35;98861.53;;;9.43;100.00
27334;BME280;14817;57.104;-2.094;2023-08-06T03:36:06;98857.56;;;9.53;100.00
27334;BME280;14817;57.104;-2.094;2023-08-06T03:38:34;98860.94;;;9.62;100.00
27334;BME280;14817;57.104;-2.094;2023-08-06T03:41:04;98861.41;;;9.66;100.00
27334;BME280;14817;57.104;-2.094;2023-08-06T03:43:31;98862.78;;;9.61;100.00
27334;BME280;14817;57.104;-2.094;2023-08-06T03:45:59;98863.53;;;9.55;100.00
27334;BME280;14817;57.104;-2.094;2023-08-06T03:48:25;98868.16;;;9.61;100.00
27334;BME280;14817;57.104;-2.094;2023-08-06T03:50:52;98870.81;;;9.61;100.00
27334;BME280;14817;57.104;-2.094;2023-08-06T03:53:19;98868.44;;;9.67;100.00
27334;BME280;14817;57.104;-2.094;2023-08-06T03:55:45;98874.78;;;9.66;100.00
27334;BME280;14817;57.104;-2.094;2023-08-06T03:58:12;98875.06;;;9.71;100.00
27334;BME280;14817;57.104;-2.094;2023-08-06T04:00:40;98874.66;;;9.74;100.00
27334;BME280;14817;57.104;-2.094;2023-08-06T04:03:08;98874.78;;;9.66;100.00
27334;BME280;14817;57.104;-2.094;2023-08-06T04:05:34;98878.09;;;9.68;100.00
27334;BME280;14817;57.104;-2.094;2023-08-06T04:08:01;98889.44;;;9.70;100.00
27334;BME280;14817;57.104;-2.094;2023-08-06T04:10:29;98888.97;;;9.66;100.00
27334;BME280;14817;57.104;-2.094;2023-08-06T04:12:56;98882.78;;;9.66;100.00
27334;BME280;14817;57.104;-2.094;2023-08-06T04:15:23;98891.00;;;9.64;100.00
27334;BME280;14817;57.104;-2.094;2023-08-06T04:17:49;98889.88;;;9.73;100.00
27334;BME280;14817;57.104;-2.094;2023-08-06T04:20:16;98888.50;;;9.77;100.00
27334;BME280;14817;57.104;-2.094;2023-08-06T04:22:43;98891.81;;;9.79;100.00
27334;BME280;14817;57.104;-2.094;2023-08-06T04:25:10;98893.22;;;9.60;100.00
27334;BME280;14817;57.104;-2.094;2023-08-06T04:27:36;98890.72;;;9.74;100.00
27334;BME280;14817;57.104;-2.094;2023-08-06T04:30:08;98884.97;;;9.77;100.00
27334;BME280;14817;57.104;-2.094;2023-08-06T04:32:36;98889.97;;;9.80;100.00
27334;BME280;14817;57.104;-2.094;2023-08-06T04:35:03;98895.78;;;9.84;100.00
27334;BME280;14817;57.104;-2.094;2023-08-06T04:37:30;98894.28;;;9.81;100.00
27334;BME280;14817;57.104;-2.094;2023-08-06T04:39:57;98895.78;;;9.84;100.00
27334;BME280;14817;57.104;-2.094;2023-08-06T04:42:24;98893.00;;;9.77;100.00
27334;BME280;14817;57.104;-2.094;2023-08-06T04:44:50;98899.16;;;9.92;100.00
27334;BME280;14817;57.104;-2.094;2023-08-06T04:47:17;98892.34;;;9.75;100.00
27334;BME280;14817;57.104;-2.094;2023-08-06T04:49:44;98895.94;;;9.82;100.00
27334;BME280;14817;57.104;-2.094;2023-08-06T04:52:10;98896.06;;;9.74;100.00
27334;BME280;14817;57.104;-2.094;2023-08-06T04:54:37;98896.31;;;9.79;100.00
27334;BME280;14817;57.104;-2.094;2023-08-06T04:57:04;98902.19;;;9.89;100.00
27334;BME280;14817;57.104;-2.094;2023-08-06T04:59:30;98899.69;;;9.88;100.00
27334;BME280;14817;57.104;-2.094;2023-08-06T05:01:57;98910.53;;;9.79;100.00
27334;BME280;14817;57.104;-2.094;2023-08-06T05:04:24;98904.22;;;9.87;100.00
27334;BME280;14817;57.104;-2.094;2023-08-06T05:06:50;98914.94;;;9.72;100.00
27334;BME280;14817;57.104;-2.094;2023-08-06T05:09:17;98917.53;;;9.80;100.00
27334;BME280;14817;57.104;-2.094;2023-08-06T05:11:44;98911.28;;;9.73;100.00
27334;BME280;14817;57.104;-2.094;2023-08-06T05:14:10;98916.69;;;9.80;100.00
27334;BME280;14817;57.104;-2.094;2023-08-06T05:16:37;98910.81;;;9.70;100.00
27334;BME280;14817;57.104;-2.094;2023-08-06T05:19:03;98907.66;;;9.81;100.00
27334;BME280;14817;57.104;-2.094;2023-08-06T05:21:30;98911.91;;;9.75;100.00
27334;BME280;14817;57.104;-2.094;2023-08-06T05:23:57;98908.28;;;9.83;100.00
27334;BME280;14817;57.104;-2.094;2023-08-06T05:26:23;98911.91;;;9.90;100.00
27334;BME280;14817;57.104;-2.094;2023-08-06T05:28:50;98904.06;;;9.89;100.00
27334;BME280;14817;57.104;-2.094;2023-08-06T05:31:17;98914.59;;;9.75;100.00
27334;BME280;14817;57.104;-2.094;2023-08-06T05:33:43;98915.09;;;9.86;100.00
27334;BME280;14817;57.104;-2.094;2023-08-06T05:36:10;98915.00;;;9.94;100.00
27334;BME280;14817;57.104;-2.094;2023-08-06T05:38:37;98917.31;;;9.97;100.00
27334;BME280;14817;57.104;-2.094;2023-08-06T05:41:04;98920.66;;;9.84;100.00
27334;BME280;14817;57.104;-2.094;2023-08-06T05:43:30;98916.34;;;10.05;100.00
27334;BME280;14817;57.104;-2.094;2023-08-06T05:45:57;98917.31;;;9.97;100.00
27334;BME280;14817;57.104;-2.094;2023-08-06T05:48:24;98914.81;;;9.95;100.00
27334;BME280;14817;57.104;-2.094;2023-08-06T05:50:51;98932.75;;;9.80;100.00
27334;BME280;14817;57.104;-2.094;2023-08-06T05:53:18;98920.88;;;10.04;100.00
27334;BME280;14817;57.104;-2.094;2023-08-06T05:55:45;98931.47;;;10.12;100.00
27334;BME280;14817;57.104;-2.094;2023-08-06T05:58:11;98930.13;;;10.01;100.00
27334;BME280;14817;57.104;-2.094;2023-08-06T06:00:38;98929.38;;;10.08;100.00
27334;BME280;14817;57.104;-2.094;2023-08-06T06:03:05;98929.50;;;10.21;100.00
27334;BME280;14817;57.104;-2.094;2023-08-06T06:05:31;98931.38;;;10.20;100.00
27334;BME280;14817;57.104;-2.094;2023-08-06T06:07:58;98930.78;;;10.25;100.00
27334;BME280;14817;57.104;-2.094;2023-08-06T06:10:25;98937.91;;;10.33;100.00
27334;BME280;14817;57.104;-2.094;2023-08-06T06:12:52;98941.22;;;10.35;100.00
27334;BME280;14817;57.104;-2.094;2023-08-06T06:15:18;98931.06;;;10.52;100.00
27334;BME280;14817;57.104;-2.094;2023-08-06T06:17:45;98934.66;;;10.59;100.00
27334;BME280;14817;57.104;-2.094;2023-08-06T06:20:12;98936.31;;;10.60;100.00
27334;BME280;14817;57.104;-2.094;2023-08-06T06:22:39;98933.03;;;10.65;100.00
27334;BME280;14817;57.104;-2.094;2023-08-06T06:25:05;98931.59;;;10.62;100.00
27334;BME280;14817;57.104;-2.094;2023-08-06T06:27:32;98937.91;;;10.76;100.00
27334;BME280;14817;57.104;-2.094;2023-08-06T06:29:59;98933.50;;;10.68;100.00
27334;BME280;14817;57.104;-2.094;2023-08-06T06:32:26;98927.69;;;10.86;100.00
27334;BME280;14817;57.104;-2.094;2023-08-06T06:34:52;98927.75;;;10.93;100.00
27334;BME280;14817;57.104;-2.094;2023-08-06T06:37:19;98917.44;;;10.96;100.00
27334;BME280;14817;57.104;-2.094;2023-08-06T06:39:45;98923.13;;;11.08;100.00
27334;BME280;14817;57.104;-2.094;2023-08-06T06:42:12;98919.16;;;11.04;100.00
27334;BME280;14817;57.104;-2.094;2023-08-06T06:44:44;98907.59;;;11.32;100.00
27334;BME280;14817;57.104;-2.094;2023-08-06T06:47:11;98907.78;;;11.30;100.00
27334;BME280;14817;57.104;-2.094;2023-08-06T06:49:37;98922.66;;;11.33;100.00
27334;BME280;14817;57.104;-2.094;2023-08-06T06:52:04;98912.03;;;11.46;100.00
27334;BME280;14817;57.104;-2.094;2023-08-06T06:54:31;98898.03;;;11.51;100.00
27334;BME280;14817;57.104;-2.094;2023-08-06T06:56:57;98898.28;;;11.69;100.00
27334;BME280;14817;57.104;-2.094;2023-08-06T06:59:24;98886.03;;;11.95;100.00
27334;BME280;14817;57.104;-2.094;2023-08-06T07:01:51;98873.97;;;12.45;100.00
27334;BME280;14817;57.104;-2.094;2023-08-06T07:04:18;98867.38;;;12.61;100.00
27334;BME280;14817;57.104;-2.094;2023-08-06T07:06:44;98840.72;;;12.93;100.00
27334;BME280;14817;57.104;-2.094;2023-08-06T07:09:11;98827.28;;;12.73;100.00
27334;BME280;14817;57.104;-2.094;2023-08-06T07:11:38;98794.00;;;13.53;100.00
27334;BME280;14817;57.104;-2.094;2023-08-06T07:14:04;98770.84;;;13.90;100.00
27334;BME280;14817;57.104;-2.094;2023-08-06T07:16:31;98733.72;;;14.49;100.00
27334;BME280;14817;57.104;-2.094;2023-08-06T07:18:58;98690.91;;;14.41;100.00
27334;BME280;14817;57.104;-2.094;2023-08-06T07:21:24;98657.31;;;14.99;100.00
27334;BME280;14817;57.104;-2.094;2023-08-06T07:23:51;98637.34;;;14.88;100.00
27334;BME280;14817;57.104;-2.094;2023-08-06T07:26:18;98604.19;;;15.60;100.00
27334;BME280;14817;57.104;-2.094;2023-08-06T07:28:44;98573.53;;;15.54;100.00
27334;BME280;14817;57.104;-2.094;2023-08-06T07:31:11;98548.38;;;15.84;100.00
27334;BME280;14817;57.104;-2.094;2023-08-06T07:33:38;98556.84;;;15.34;100.00
27334;BME280;14817;57.104;-2.094;2023-08-06T07:36:11;98535.09;;;15.94;100.00
27334;BME280;14817;57.104;-2.094;2023-08-06T07:38:38;98516.13;;;16.29;100.00
27334;BME280;14817;57.104;-2.094;2023-08-06T07:41:05;98511.84;;;16.74;100.00
27334;BME280;14817;57.104;-2.094;2023-08-06T07:43:32;98528.25;;;16.56;100.00
27334;BME280;14817;57.104;-2.094;2023-08-06T07:45:59;98527.44;;;16.55;100.00
27334;BME280;14817;57.104;-2.094;2023-08-06T07:48:27;98527.22;;;16.85;100.00
27334;BME280;14817;57.104;-2.094;2023-08-06T07:50:54;98506.63;;;17.30;100.00
27334;BME280;14817;57.104;-2.094;2023-08-06T07:53:21;98518.69;;;17.22;100.00
27334;BME280;14817;57.104;-2.094;2023-08-06T07:55:52;98497.66;;;17.97;100.00
27334;BME280;14817;57.104;-2.094;2023-08-06T07:58:23;98530.16;;;17.63;100.00
27334;BME280;14817;57.104;-2.094;2023-08-06T08:00:50;98545.09;;;18.22;100.00
27334;BME280;14817;57.104;-2.094;2023-08-06T08:03:17;98579.28;;;17.72;100.00
27334;BME280;14817;57.104;-2.094;2023-08-06T08:05:44;99463.53;;;19.31;100.00
27334;BME280;14817;57.104;-2.094;2023-08-06T08:08:10;100338.31;;;19.14;100.00
27334;BME280;14817;57.104;-2.094;2023-08-06T08:10:37;100378.66;;;18.91;100.00
27334;BME280;14817;57.104;-2.094;2023-08-06T08:13:05;100404.13;;;18.83;100.00
27334;BME280;14817;57.104;-2.094;2023-08-06T08:15:32;100437.34;;;19.77;100.00
27334;BME280;14817;57.104;-2.094;2023-08-06T08:17:59;100470.09;;;20.40;100.00
27334;BME280;14817;57.104;-2.094;2023-08-06T08:20:26;100470.56;;;19.86;100.00
27334;BME280;14817;57.104;-2.094;2023-08-06T08:23:01;100462.50;;;19.46;100.00
27334;BME280;14817;57.104;-2.094;2023-08-06T08:25:28;100477.09;;;18.45;100.00
27334;BME280;14817;57.104;-2.094;2023-08-06T08:27:57;100473.47;;;18.24;100.00
27334;BME280;14817;57.104;-2.094;2023-08-06T08:30:24;100437.31;;;17.21;100.00
27334;BME280;14817;57.104;-2.094;2023-08-06T08:32:52;100389.00;;;16.40;100.00
27334;BME280;14817;57.104;-2.094;2023-08-06T08:35:18;100402.50;;;17.94;100.00
27334;BME280;14817;57.104;-2.094;2023-08-06T08:37:45;100430.88;;;17.98;100.00
27334;BME280;14817;57.104;-2.094;2023-08-06T08:40:13;100438.16;;;17.56;100.00
27334;BME280;14817;57.104;-2.094;2023-08-06T08:42:40;100427.56;;;16.98;100.00
27334;BME280;14817;57.104;-2.094;2023-08-06T08:45:10;100413.94;;;17.13;100.00
27334;BME280;14817;57.104;-2.094;2023-08-06T08:47:38;100411.53;;;18.14;100.00
27334;BME280;14817;57.104;-2.094;2023-08-06T08:50:05;100432.63;;;18.32;100.00
27334;BME280;14817;57.104;-2.094;2023-08-06T08:52:33;100485.78;;;20.00;100.00
27334;BME280;14817;57.104;-2.094;2023-08-06T08:55:01;100494.63;;;20.34;100.00
27334;BME280;14817;57.104;-2.094;2023-08-06T08:57:27;100508.44;;;20.71;100.00
27334;BME280;14817;57.104;-2.094;2023-08-06T08:59:55;100515.63;;;20.90;100.00
27334;BME280;14817;57.104;-2.094;2023-08-06T09:02:21;100521.91;;;21.41;100.00
27334;BME280;14817;57.104;-2.094;2023-08-06T09:04:51;100506.34;;;19.83;100.00
27334;BME280;14817;57.104;-2.094;2023-08-06T09:07:18;100490.19;;;18.28;100.00
27334;BME280;14817;57.104;-2.094;2023-08-06T09:09:46;100492.41;;;18.79;100.00
27334;BME280;14817;57.104;-2.094;2023-08-06T09:12:14;100490.63;;;17.83;100.00
27334;BME280;14817;57.104;-2.094;2023-08-06T09:14:41;100465.56;;;17.40;100.00
27334;BME280;14817;57.104;-2.094;2023-08-06T09:17:09;100454.00;;;16.74;100.00
27334;BME280;14817;57.104;-2.094;2023-08-06T09:19:37;100446.91;;;17.23;100.00
27334;BME280;14817;57.104;-2.094;2023-08-06T09:22:04;100455.94;;;16.81;100.00
27334;BME280;14817;57.104;-2.094;2023-08-06T09:24:38;100434.75;;;16.63;100.00
27334;BME280;14817;57.104;-2.094;2023-08-06T09:27:04;100439.34;;;17.12;100.00
27334;BME280;14817;57.104;-2.094;2023-08-06T09:29:31;100437.31;;;17.21;100.00
27334;BME280;14817;57.104;-2.094;2023-08-06T09:31:59;100434.53;;;17.07;100.00
27334;BME280;14817;57.104;-2.094;2023-08-06T09:34:26;100429.16;;;17.14;100.00
27334;BME280;14817;57.104;-2.094;2023-08-06T09:36:53;100430.19;;;16.63;100.00
27334;BME280;14817;57.104;-2.094;2023-08-06T09:39:21;100423.44;;;17.30;100.00
27334;BME280;14817;57.104;-2.094;2023-08-06T09:41:48;100440.41;;;17.46;100.00
27334;BME280;14817;57.104;-2.094;2023-08-06T09:44:18;100453.66;;;17.34;100.00
27334;BME280;14817;57.104;-2.094;2023-08-06T09:46:49;100469.38;;;17.52;100.00
27334;BME280;14817;57.104;-2.094;2023-08-06T09:49:17;100475.13;;;18.19;100.00
27334;BME280;14817;57.104;-2.094;2023-08-06T09:51:48;100484.13;;;17.49;100.00
27334;BME280;14817;57.104;-2.094;2023-08-06T09:54:20;100460.50;;;17.65;100.00
27334;BME280;14817;57.104;-2.094;2023-08-06T09:56:56;100473.34;;;18.59;100.00
27334;BME280;14817;57.104;-2.094;2023-08-06T09:59:23;100498.69;;;19.00;100.00
27334;BME280;14817;57.104;-2.094;2023-08-06T10:01:50;100503.06;;;18.81;100.00
27334;BME280;14817;57.104;-2.094;2023-08-06T10:04:19;100496.81;;;18.12;100.00
27334;BME280;14817;57.104;-2.094;2023-08-06T10:06:51;100478.16;;;17.54;100.00
27334;BME280;14817;57.104;-2.094;2023-08-06T10:09:19;100468.66;;;17.71;100.00
27334;BME280;14817;57.104;-2.094;2023-08-06T10:11:50;100472.97;;;17.59;100.00
27334;BME280;14817;57.104;-2.094;2023-08-06T10:17:13;100439.53;;;16.82;100.00
27334;BME280;14817;57.104;-2.094;2023-08-06T10:19:40;100435.78;;;16.62;100.00
27334;BME280;14817;57.104;-2.094;2023-08-06T10:22:11;100441.50;;;16.95;100.00
27334;BME280;14817;57.104;-2.094;2023-08-06T10:27:16;100477.78;;;16.79;100.00
27334;BME280;14817;57.104;-2.094;2023-08-06T10:29:45;100453.28;;;16.66;100.00
27334;BME280;14817;57.104;-2.094;2023-08-06T10:32:15;100450.31;;;17.04;100.00
27334;BME280;14817;57.104;-2.094;2023-08-06T10:34:57;100481.72;;;17.26;100.00
27334;BME280;14817;57.104;-2.094;2023-08-06T10:37:34;100484.56;;;17.18;100.00
27334;BME280;14817;57.104;-2.094;2023-08-06T10:40:02;100492.81;;;17.10;100.00
27334;BME280;14817;57.104;-2.094;2023-08-06T10:42:29;100460.75;;;16.64;100.00
27334;BME280;14817;57.104;-2.094;2023-08-06T10:45:16;100439.91;;;16.58;100.00
27334;BME280;14817;57.104;-2.094;2023-08-06T10:47:43;100420.41;;;16.41;100.00
27334;BME280;14817;57.104;-2.094;2023-08-06T10:50:11;100433.19;;;16.53;100.00
27334;BME280;14817;57.104;-2.094;2023-08-06T10:52:38;100431.66;;;16.23;100.00
27334;BME280;14817;57.104;-2.094;2023-08-06T10:55:05;100438.13;;;16.22;100.00
27334;BME280;14817;57.104;-2.094;2023-08-06T10:57:32;100427.31;;;16.22;100.00
27334;BME280;14817;57.104;-2.094;2023-08-06T10:59:58;100436.75;;;16.32;100.00
27334;BME280;14817;57.104;-2.094;2023-08-06T11:02:41;100441.81;;;16.21;100.00
27334;BME280;14817;57.104;-2.094;2023-08-06T11:05:08;100458.69;;;16.44;100.00
27334;BME280;14817;57.104;-2.094;2023-08-06T11:07:35;100448.56;;;16.10;100.00
27334;BME280;14817;57.104;-2.094;2023-08-06T11:10:03;100468.00;;;16.20;100.00
27334;BME280;14817;57.104;-2.094;2023-08-06T11:12:31;100477.09;;;16.34;100.00
27334;BME280;14817;57.104;-2.094;2023-08-06T11:14:57;100461.78;;;16.20;100.00
27334;BME280;14817;57.104;-2.094;2023-08-06T11:17:24;100461.34;;;16.01;100.00
27334;BME280;14817;57.104;-2.094;2023-08-06T11:19:52;100467.78;;;16.00;100.00
27334;BME280;14817;57.104;-2.094;2023-08-06T11:22:20;100494.97;;;16.13;100.00
27334;BME280;14817;57.104;-2.094;2023-08-06T11:24:47;100485.53;;;16.24;100.00
27334;BME280;14817;57.104;-2.094;2023-08-06T11:27:15;100486.97;;;15.90;100.00
27334;BME280;14817;57.104;-2.094;2023-08-06T11:29:42;100498.50;;;16.14;100.00
27334;BME280;14817;57.104;-2.094;2023-08-06T11:32:09;100491.19;;;15.78;100.00
27334;BME280;14817;57.104;-2.094;2023-08-06T11:34:37;100498.53;;;15.84;100.00
27334;BME280;14817;57.104;-2.094;2023-08-06T11:37:04;100500.22;;;15.85;100.00
27334;BME280;14817;57.104;-2.094;2023-08-06T11:39:34;100473.28;;;15.62;100.00
27334;BME280;14817;57.104;-2.094;2023-08-06T11:42:04;100458.84;;;15.55;100.00
27334;BME280;14817;57.104;-2.094;2023-08-06T11:44:32;100462.38;;;15.11;100.00
27334;BME280;14817;57.104;-2.094;2023-08-06T11:47:03;100456.38;;;15.01;100.00
27334;BME280;14817;57.104;-2.094;2023-08-06T11:52:10;100429.81;;;15.27;100.00
27334;BME280;14817;57.104;-2.094;2023-08-06T11:54:37;100423.09;;;15.38;100.00
27334;BME280;14817;57.104;-2.094;2023-08-06T11:57:07;100418.72;;;15.67;100.00
27334;BME280;14817;57.104;-2.094;2023-08-06T11:59:34;100408.94;;;15.81;100.00
27334;BME280;14817;57.104;-2.094;2023-08-06T12:02:02;100413.38;;;16.46;100.00
27334;BME280;14817;57.104;-2.094;2023-08-06T12:04:28;100461.69;;;16.49;100.00
27334;BME280;14817;57.104;-2.094;2023-08-06T12:06:55;100466.03;;;16.72;100.00
27334;BME280;14817;57.104;-2.094;2023-08-06T12:09:30;100502.66;;;16.74;100.00
27334;BME280;14817;57.104;-2.094;2023-08-06T12:11:57;100516.59;;;16.50;100.00
27334;BME280;14817;57.104;-2.094;2023-08-06T12:14:24;100493.66;;;16.46;100.00
27334;BME280;14817;57.104;-2.094;2023-08-06T12:16:50;100491.53;;;16.41;100.00
27334;BME280;14817;57.104;-2.094;2023-08-06T12:19:17;100510.63;;;15.88;100.00
27334;BME280;14817;57.104;-2.094;2023-08-06T12:21:44;100521.22;;;16.20;100.00
27334;BME280;14817;57.104;-2.094;2023-08-06T12:24:11;100531.47;;;16.09;100.00
27334;BME280;14817;57.104;-2.094;2023-08-06T12:26:38;100522.34;;;16.10;100.00
27334;BME280;14817;57.104;-2.094;2023-08-06T12:29:04;100527.19;;;15.70;100.00
27334;BME280;14817;57.104;-2.094;2023-08-06T12:31:31;100513.06;;;15.83;100.00
27334;BME280;14817;57.104;-2.094;2023-08-06T12:33:58;100494.81;;;15.70;100.00
27334;BME280;14817;57.104;-2.094;2023-08-06T12:36:24;100473.66;;;15.74;100.00
27334;BME280;14817;57.104;-2.094;2023-08-06T12:38:51;100480.47;;;15.85;100.00
27334;BME280;14817;57.104;-2.094;2023-08-06T12:41:18;100482.94;;;16.16;100.00
27334;BME280;14817;57.104;-2.094;2023-08-06T12:43:44;100501.19;;;16.14;100.00
27334;BME280;14817;57.104;-2.094;2023-08-06T12:46:11;100493.69;;;16.31;100.00
27334;BME280;14817;57.104;-2.094;2023-08-06T12:48:38;100498.63;;;16.27;100.00
27334;BME280;14817;57.104;-2.094;2023-08-06T12:51:05;100494.25;;;16.63;100.00
27334;BME280;14817;57.104;-2.094;2023-08-06T12:53:32;100492.31;;;16.78;100.00
27334;BME280;14817;57.104;-2.094;2023-08-06T12:55:58;100499.97;;;16.96;100.00